Time;durP1;ratioP1;P1;durP2;ratioP2;P2;SDS_P1;SDS_P2;PMS_P1;PMS_P2;Temp;Humidity;BMP_temperature;BMP_pressure;BME280_temperature;BME280_humidity;BME280_pressure;Samples;Min_cycle;Max_cycle;Signal;HPM_P1;HPM_P2
2021/05/19 00:00:27;;;;;;;13.63;7.72;;;;;;;;;;4985861;28;20129;-71
2021/05/19 00:02:53;;;;;;;19.88;9.38;;;;;;;;;;4987571;28;20401;-71
2021/05/19 00:05:19;;;;;;;12.48;7.68;;;;;;;;;;4991158;28;20439;-72
2021/05/19 00:07:45;;;;;;;14.77;8.45;;;;;;;;;;4993374;28;20469;-72
2021/05/19 00:10:11;;;;;;;17.20;10.18;;;;;;;;;;4984890;28;20062;-72
2021/05/19 00:12:37;;;;;;;18.50;9.30;;;;;;;;;;4993792;28;20022;-73
2021/05/19 00:15:04;;;;;;;19.23;10.63;;;;;;;;;;4997762;28;20054;-72
2021/05/19 00:17:39;;;;;;;21.55;10.38;;;;;;;;;;5003254;28;20031;-72
2021/05/19 00:20:05;;;;;;;22.20;10.75;;;;;;;;;;5008648;28;20066;-72
2021/05/19 00:22:31;;;;;;;22.63;11.73;;;;;;;;;;4993064;28;20062;-72
2021/05/19 00:24:57;;;;;;;19.77;10.45;;;;;;;;;;5007600;28;20027;-72
2021/05/19 00:27:23;;;;;;;19.63;10.82;;;;;;;;;;4998849;28;20030;-72
2021/05/19 00:29:51;;;;;;;23.45;10.10;;;;;;;;;;4989245;28;20090;-72
2021/05/19 00:32:17;;;;;;;21.27;9.73;;;;;;;;;;4999887;28;20019;-72
2021/05/19 00:34:44;;;;;;;23.65;9.73;;;;;;;;;;5006105;28;20086;-72
2021/05/19 00:37:10;;;;;;;27.27;9.93;;;;;;;;;;5022401;28;20018;-72
2021/05/19 00:39:36;;;;;;;25.15;9.60;;;;;;;;;;5004769;28;20133;-72
2021/05/19 00:42:02;;;;;;;25.10;12.90;;;;;;;;;;5004183;28;20049;-73
2021/05/19 00:44:28;;;;;;;24.40;11.18;;;;;;;;;;4988607;28;20047;-72
2021/05/19 00:46:53;;;;;;;31.73;11.63;;;;;;;;;;5003528;28;20026;-73
2021/05/19 00:49:19;;;;;;;25.85;11.38;;;;;;;;;;5003193;28;20093;-72
2021/05/19 00:51:46;;;;;;;22.02;9.68;;;;;;;;;;5006676;28;20055;-72
2021/05/19 00:54:12;;;;;;;25.75;11.07;;;;;;;;;;5014678;28;20027;-72
2021/05/19 00:56:38;;;;;;;27.20;11.85;;;;;;;;;;5003426;28;20484;-72
2021/05/19 00:59:04;;;;;;;27.90;12.02;;;;;;;;;;4988371;28;20030;-72
2021/05/19 01:01:37;;;;;;;25.50;12.18;;;;;;;;;;4992764;28;20023;-71
2021/05/19 01:04:04;;;;;;;27.35;11.05;;;;;;;;;;4979924;28;20046;-73
2021/05/19 01:06:42;;;;;;;30.75;11.68;;;;;;;;;;4976813;28;20026;-72
2021/05/19 01:11:55;;;;;;;21.40;11.85;;;;;;;;;;4994917;28;20069;-72
2021/05/19 01:14:21;;;;;;;24.95;10.90;;;;;;;;;;4987045;28;20392;-72
2021/05/19 01:16:47;;;;;;;21.08;10.40;;;;;;;;;;4999601;28;20588;-72
2021/05/19 01:19:18;;;;;;;19.30;9.85;;;;;;;;;;4986099;28;20022;-72
2021/05/19 01:21:46;;;;;;;25.55;9.63;;;;;;;;;;4972919;28;20034;-72
2021/05/19 01:24:12;;;;;;;17.33;8.45;;;;;;;;;;4989218;28;20018;-72
2021/05/19 01:26:38;;;;;;;22.08;9.93;;;;;;;;;;4988725;28;20077;-72
2021/05/19 01:29:06;;;;;;;25.33;9.07;;;;;;;;;;4977091;28;20015;-72
2021/05/19 01:31:32;;;;;;;20.80;8.63;;;;;;;;;;4975980;28;20041;-73
2021/05/19 01:33:58;;;;;;;19.73;9.40;;;;;;;;;;4977594;28;20476;-72
2021/05/19 01:36:24;;;;;;;25.55;9.88;;;;;;;;;;4975030;28;20050;-72
2021/05/19 01:38:50;;;;;;;19.20;8.27;;;;;;;;;;4986789;28;20062;-72
2021/05/19 01:41:16;;;;;;;21.20;8.43;;;;;;;;;;4974253;28;20027;-72
2021/05/19 01:43:42;;;;;;;15.25;8.18;;;;;;;;;;5006036;28;20053;-72
2021/05/19 01:46:08;;;;;;;19.08;8.23;;;;;;;;;;4973788;28;20505;-72
2021/05/19 01:48:34;;;;;;;17.17;8.50;;;;;;;;;;4985822;28;20027;-72
2021/05/19 01:51:01;;;;;;;20.05;7.90;;;;;;;;;;4982588;28;20029;-72
2021/05/19 01:53:28;;;;;;;20.55;9.43;;;;;;;;;;4982650;28;20022;-72
2021/05/19 01:55:54;;;;;;;20.08;8.02;;;;;;;;;;4981727;28;20018;-72
2021/05/19 01:58:20;;;;;;;19.20;7.78;;;;;;;;;;5003513;28;20498;-73
2021/05/19 02:00:46;;;;;;;17.45;7.75;;;;;;;;;;4977345;28;20414;-72
2021/05/19 02:03:12;;;;;;;19.70;7.72;;;;;;;;;;4976495;28;20027;-72
2021/05/19 02:05:39;;;;;;;19.50;7.32;;;;;;;;;;4982606;28;20030;-72
2021/05/19 02:08:07;;;;;;;20.20;8.88;;;;;;;;;;4974502;28;20026;-72
2021/05/19 02:10:33;;;;;;;23.13;8.30;;;;;;;;;;4982279;28;20121;-72
2021/05/19 02:13:00;;;;;;;17.23;7.60;;;;;;;;;;4984437;28;20193;-73
2021/05/19 02:15:26;;;;;;;17.40;7.95;;;;;;;;;;4983825;28;20061;-72
2021/05/19 02:17:52;;;;;;;16.52;7.15;;;;;;;;;;4988255;28;20465;-72
2021/05/19 02:20:20;;;;;;;16.10;6.85;;;;;;;;;;4979345;28;20030;-72
2021/05/19 02:22:48;;;;;;;17.83;7.38;;;;;;;;;;4984971;28;20027;-72
2021/05/19 02:25:14;;;;;;;19.92;7.70;;;;;;;;;;4983375;28;20055;-72
2021/05/19 02:27:40;;;;;;;16.10;7.75;;;;;;;;;;4995109;28;20395;-73
2021/05/19 02:30:07;;;;;;;20.88;7.75;;;;;;;;;;5004806;28;20019;-72
2021/05/19 02:32:33;;;;;;;16.17;8.48;;;;;;;;;;4978790;28;20022;-72
2021/05/19 02:35:00;;;;;;;18.30;8.00;;;;;;;;;;4983612;28;20026;-72
2021/05/19 02:37:25;;;;;;;21.73;8.32;;;;;;;;;;4976089;28;20023;-72
2021/05/19 02:39:52;;;;;;;24.33;9.13;;;;;;;;;;4976058;28;20038;-72
2021/05/19 02:42:17;;;;;;;19.90;7.82;;;;;;;;;;4979508;28;20388;-72
2021/05/19 02:44:43;;;;;;;23.67;8.93;;;;;;;;;;4984409;28;20049;-72
2021/05/19 02:47:09;;;;;;;19.83;9.60;;;;;;;;;;5004026;28;20064;-72
2021/05/19 02:49:35;;;;;;;33.85;10.00;;;;;;;;;;4985142;28;20114;-72
2021/05/19 02:52:01;;;;;;;24.65;9.70;;;;;;;;;;4974418;28;20046;-72
2021/05/19 02:54:27;;;;;;;25.88;10.20;;;;;;;;;;4976398;28;20034;-72
2021/05/19 02:56:53;;;;;;;28.23;10.52;;;;;;;;;;4988781;28;20042;-72
2021/05/19 02:59:19;;;;;;;28.10;10.90;;;;;;;;;;4977321;28;20022;-72
2021/05/19 03:01:45;;;;;;;22.92;10.02;;;;;;;;;;4984129;28;20030;-72
2021/05/19 03:04:11;;;;;;;29.27;10.00;;;;;;;;;;4979442;28;20057;-72
2021/05/19 03:06:38;;;;;;;28.02;11.63;;;;;;;;;;4980965;28;20362;-72
2021/05/19 03:09:04;;;;;;;28.80;13.23;;;;;;;;;;4983216;28;20577;-72
2021/05/19 03:11:30;;;;;;;35.85;12.05;;;;;;;;;;4974008;28;20033;-72
2021/05/19 03:13:56;;;;;;;30.15;12.02;;;;;;;;;;4992808;28;20034;-72
2021/05/19 03:16:22;;;;;;;26.70;12.52;;;;;;;;;;4992178;28;20112;-72
2021/05/19 03:18:49;;;;;;;29.98;12.65;;;;;;;;;;4996674;28;20471;-72
2021/05/19 03:21:15;;;;;;;24.23;11.40;;;;;;;;;;4975141;28;20428;-71
2021/05/19 03:23:41;;;;;;;31.88;12.93;;;;;;;;;;4982106;28;20459;-72
2021/05/19 03:26:07;;;;;;;24.15;11.65;;;;;;;;;;4983461;28;20023;-72
2021/05/19 03:28:34;;;;;;;30.00;13.85;;;;;;;;;;4986433;28;20025;-72
2021/05/19 03:31:00;;;;;;;28.80;13.05;;;;;;;;;;4991297;28;20091;-73
2021/05/19 03:33:26;;;;;;;30.00;14.75;;;;;;;;;;4988907;28;20049;-73
2021/05/19 03:35:52;;;;;;;25.42;12.65;;;;;;;;;;4987941;28;20026;-72
2021/05/19 03:38:18;;;;;;;30.17;14.70;;;;;;;;;;4981874;28;20018;-72
2021/05/19 03:40:44;;;;;;;32.65;15.05;;;;;;;;;;4987661;28;20026;-72
2021/05/19 03:43:11;;;;;;;33.70;14.30;;;;;;;;;;4979005;28;20054;-72
2021/05/19 03:45:37;;;;;;;27.60;12.68;;;;;;;;;;4988116;28;20062;-72
2021/05/19 03:48:04;;;;;;;26.00;13.20;;;;;;;;;;4989065;28;20468;-72
2021/05/19 03:50:30;;;;;;;30.35;13.77;;;;;;;;;;4981635;28;20027;-72
2021/05/19 03:52:59;;;;;;;28.00;14.00;;;;;;;;;;4987384;28;20397;-72
2021/05/19 03:55:26;;;;;;;32.78;15.32;;;;;;;;;;5007385;28;20472;-72
2021/05/19 03:57:52;;;;;;;33.03;13.88;;;;;;;;;;4984681;28;20031;-72
2021/05/19 04:00:20;;;;;;;28.60;14.05;;;;;;;;;;4989694;28;20031;-72
2021/05/19 04:02:49;;;;;;;42.70;14.88;;;;;;;;;;4979697;28;20054;-72
2021/05/19 04:05:23;;;;;;;32.63;14.25;;;;;;;;;;4989488;28;20487;-72
2021/05/19 04:07:49;;;;;;;31.88;15.05;;;;;;;;;;4986252;28;20029;-72
2021/05/19 04:10:15;;;;;;;32.50;14.52;;;;;;;;;;5005518;28;20554;-73
2021/05/19 04:12:41;;;;;;;22.45;13.20;;;;;;;;;;4975606;28;20022;-73
2021/05/19 04:15:07;;;;;;;32.40;14.20;;;;;;;;;;5001067;28;20026;-72
2021/05/19 04:17:33;;;;;;;23.90;13.63;;;;;;;;;;4990935;28;20029;-73
2021/05/19 04:19:59;;;;;;;31.85;13.80;;;;;;;;;;4996005;28;20038;-73
2021/05/19 04:22:26;;;;;;;27.55;13.07;;;;;;;;;;4987262;28;20030;-73
2021/05/19 04:24:51;;;;;;;25.17;12.95;;;;;;;;;;4983978;28;20387;-73
2021/05/19 04:27:17;;;;;;;28.85;13.65;;;;;;;;;;4984246;28;20498;-73
2021/05/19 04:29:43;;;;;;;32.05;14.05;;;;;;;;;;4992481;28;20034;-73
2021/05/19 04:32:10;;;;;;;30.38;13.00;;;;;;;;;;4983267;28;20027;-72
2021/05/19 04:34:38;;;;;;;32.30;13.77;;;;;;;;;;4984907;28;20019;-72
2021/05/19 04:37:04;;;;;;;29.45;12.98;;;;;;;;;;4982378;28;20021;-72
2021/05/19 04:39:29;;;;;;;24.52;13.00;;;;;;;;;;4983277;28;20396;-73
2021/05/19 04:41:55;;;;;;;26.10;12.43;;;;;;;;;;5005036;28;20040;-73
2021/05/19 04:44:21;;;;;;;22.40;11.85;;;;;;;;;;4991524;28;20045;-72
2021/05/19 04:46:47;;;;;;;20.88;12.25;;;;;;;;;;5007349;28;20115;-73
2021/05/19 04:49:13;;;;;;;27.02;11.65;;;;;;;;;;4977435;28;20550;-72
2021/05/19 04:51:39;;;;;;;28.60;11.48;;;;;;;;;;4988620;28;20026;-72
2021/05/19 04:54:07;;;;;;;23.60;11.63;;;;;;;;;;4985673;28;20033;-73
2021/05/19 04:56:33;;;;;;;28.70;12.05;;;;;;;;;;4987643;28;20019;-73
2021/05/19 04:58:59;;;;;;;25.38;11.60;;;;;;;;;;5002043;28;20027;-73
2021/05/19 05:01:25;;;;;;;23.35;12.23;;;;;;;;;;4987883;28;20981;-72
2021/05/19 05:03:51;;;;;;;24.67;12.68;;;;;;;;;;4999147;28;20033;-72
2021/05/19 05:06:16;;;;;;;28.45;12.57;;;;;;;;;;4985378;28;20022;-73
2021/05/19 05:08:42;;;;;;;24.98;10.98;;;;;;;;;;4984227;28;20030;-73
2021/05/19 05:11:08;;;;;;;27.42;12.38;;;;;;;;;;4985433;28;20034;-73
2021/05/19 05:13:35;;;;;;;24.17;11.90;;;;;;;;;;4988893;28;20026;-73
2021/05/19 05:16:01;;;;;;;26.83;12.35;;;;;;;;;;4991021;28;20018;-73
2021/05/19 05:18:27;;;;;;;25.90;12.07;;;;;;;;;;4987991;28;20531;-73
2021/05/19 05:20:52;;;;;;;29.33;13.45;;;;;;;;;;4986272;28;20030;-73
2021/05/19 05:23:18;;;;;;;31.38;12.15;;;;;;;;;;4984377;28;20370;-72
2021/05/19 05:25:44;;;;;;;31.75;14.68;;;;;;;;;;4990173;28;20540;-72
2021/05/19 05:28:10;;;;;;;25.73;13.50;;;;;;;;;;4991029;28;20030;-72
2021/05/19 05:30:36;;;;;;;26.67;13.25;;;;;;;;;;4987715;28;20034;-72
2021/05/19 05:33:02;;;;;;;28.35;14.75;;;;;;;;;;4986157;28;20026;-73
2021/05/19 05:35:28;;;;;;;24.95;14.25;;;;;;;;;;4975839;28;20034;-72
2021/05/19 05:37:54;;;;;;;32.05;16.27;;;;;;;;;;4975016;28;20073;-72
2021/05/19 05:40:20;;;;;;;34.95;17.30;;;;;;;;;;4982904;28;20031;-71
2021/05/19 05:42:46;;;;;;;33.78;18.25;;;;;;;;;;4978764;28;20443;-72
2021/05/19 05:45:13;;;;;;;31.38;17.35;;;;;;;;;;4980107;28;20396;-72
2021/05/19 05:47:39;;;;;;;33.70;18.83;;;;;;;;;;4985007;28;20022;-73
2021/05/19 05:50:06;;;;;;;40.65;19.15;;;;;;;;;;4980630;28;20045;-72
2021/05/19 05:52:32;;;;;;;40.55;19.73;;;;;;;;;;4990897;28;20365;-72
2021/05/19 05:54:58;;;;;;;37.95;19.55;;;;;;;;;;4981609;28;20480;-72
2021/05/19 05:57:24;;;;;;;41.05;20.35;;;;;;;;;;5002089;28;20031;-73
2021/05/19 05:59:50;;;;;;;39.80;19.52;;;;;;;;;;4982365;28;20030;-71
2021/05/19 06:02:16;;;;;;;38.00;19.65;;;;;;;;;;4976477;28;20018;-71
2021/05/19 06:04:41;;;;;;;39.50;20.58;;;;;;;;;;4984333;28;20366;-71
2021/05/19 06:07:07;;;;;;;37.17;21.35;;;;;;;;;;4980170;28;20027;-71
2021/05/19 06:09:33;;;;;;;42.88;21.88;;;;;;;;;;4981750;28;20040;-71
2021/05/19 06:11:59;;;;;;;42.58;22.45;;;;;;;;;;4982520;28;20077;-72
2021/05/19 06:14:25;;;;;;;45.90;23.77;;;;;;;;;;4986049;28;20105;-70
2021/05/19 06:16:51;;;;;;;46.72;24.58;;;;;;;;;;5002825;28;20391;-70
2021/05/19 06:19:17;;;;;;;47.97;24.70;;;;;;;;;;5006773;28;20487;-70
2021/05/19 06:21:43;;;;;;;46.30;25.13;;;;;;;;;;5002953;28;20022;-70
2021/05/19 06:24:09;;;;;;;41.35;24.70;;;;;;;;;;5007947;28;20024;-74
2021/05/19 06:26:35;;;;;;;39.50;22.35;;;;;;;;;;5004818;28;20049;-70
2021/05/19 06:29:01;;;;;;;42.38;22.00;;;;;;;;;;5007125;28;20065;-70
2021/05/19 06:31:27;;;;;;;39.05;23.02;;;;;;;;;;4998397;28;20084;-70
2021/05/19 06:33:53;;;;;;;40.58;22.10;;;;;;;;;;4994170;28;20030;-70
2021/05/19 06:36:19;;;;;;;37.50;21.17;;;;;;;;;;5004618;28;20113;-70
2021/05/19 06:38:45;;;;;;;36.45;20.75;;;;;;;;;;4999099;28;20024;-70
2021/05/19 06:41:11;;;;;;;40.38;21.48;;;;;;;;;;4990148;28;20474;-70
2021/05/19 06:43:37;;;;;;;34.88;22.30;;;;;;;;;;4995436;28;20102;-70
2021/05/19 06:46:03;;;;;;;30.50;20.25;;;;;;;;;;5020313;28;20025;-70
2021/05/19 06:48:28;;;;;;;34.50;21.50;;;;;;;;;;4991826;28;20024;-70
2021/05/19 06:50:55;;;;;;;41.28;22.00;;;;;;;;;;5006323;28;20062;-69
2021/05/19 06:53:21;;;;;;;39.10;20.67;;;;;;;;;;4999458;28;20093;-69
2021/05/19 06:55:52;;;;;;;31.00;18.90;;;;;;;;;;4988680;28;20022;-69
2021/05/19 06:58:18;;;;;;;37.25;18.85;;;;;;;;;;4995253;28;20092;-69
2021/05/19 07:00:44;;;;;;;34.63;17.55;;;;;;;;;;5000569;28;20050;-69
2021/05/19 07:03:10;;;;;;;28.92;18.00;;;;;;;;;;4998916;28;20053;-69
2021/05/19 07:05:36;;;;;;;33.03;17.70;;;;;;;;;;5006718;28;20476;-69
2021/05/19 07:08:04;;;;;;;36.30;17.38;;;;;;;;;;5008597;28;20542;-69
2021/05/19 07:10:31;;;;;;;30.42;16.40;;;;;;;;;;4996809;28;20029;-69
2021/05/19 07:12:57;;;;;;;37.35;17.30;;;;;;;;;;5006557;28;20029;-69
2021/05/19 07:15:23;;;;;;;30.52;16.50;;;;;;;;;;4997622;28;20415;-69
2021/05/19 07:17:49;;;;;;;33.80;16.27;;;;;;;;;;5007674;28;20053;-69
2021/05/19 07:20:15;;;;;;;26.17;14.07;;;;;;;;;;5025286;28;20596;-69
2021/05/19 07:22:41;;;;;;;28.00;15.18;;;;;;;;;;4994882;28;20433;-69
2021/05/19 07:25:08;;;;;;;31.60;15.77;;;;;;;;;;4999338;28;20092;-70
2021/05/19 07:27:34;;;;;;;21.30;12.60;;;;;;;;;;4993014;28;20379;-70
2021/05/19 07:30:00;;;;;;;24.50;14.32;;;;;;;;;;4992708;28;20027;-70
2021/05/19 07:32:27;;;;;;;26.35;14.02;;;;;;;;;;4989987;28;20424;-70
2021/05/19 07:34:53;;;;;;;20.70;13.57;;;;;;;;;;5007442;28;20118;-70
2021/05/19 07:37:19;;;;;;;25.80;13.10;;;;;;;;;;4996332;28;20123;-70
2021/05/19 07:39:45;;;;;;;29.75;13.43;;;;;;;;;;4991321;28;20440;-70
2021/05/19 07:42:16;;;;;;;26.73;12.73;;;;;;;;;;4996309;28;20034;-70
2021/05/19 07:44:43;;;;;;;23.92;12.40;;;;;;;;;;5003321;28;20025;-70
2021/05/19 07:47:09;;;;;;;26.30;13.40;;;;;;;;;;4986121;28;20026;-70
2021/05/19 07:49:35;;;;;;;26.98;14.98;;;;;;;;;;4990022;28;20129;-70
2021/05/19 07:52:01;;;;;;;20.20;12.57;;;;;;;;;;4989991;28;20379;-70
2021/05/19 07:54:29;;;;;;;19.30;9.98;;;;;;;;;;5003448;28;20026;-70
2021/05/19 07:56:59;;;;;;;18.52;8.57;;;;;;;;;;4998453;28;20242;-72
2021/05/19 07:59:28;;;;;;;14.20;8.07;;;;;;;;;;4997311;28;20014;-72
2021/05/19 08:02:08;;;;;;;17.80;7.23;;;;;;;;;;4995331;28;20037;-73
2021/05/19 08:04:35;;;;;;;12.88;7.28;;;;;;;;;;4996019;28;20011;-73
2021/05/19 08:07:02;;;;;;;13.20;5.40;;;;;;;;;;4988756;28;20029;-73
2021/05/19 08:09:28;;;;;;;10.70;5.55;;;;;;;;;;4992815;28;20033;-72
2021/05/19 08:11:54;;;;;;;15.75;6.13;;;;;;;;;;4988660;28;20062;-73
2021/05/19 08:14:21;;;;;;;9.65;5.40;;;;;;;;;;5000270;28;20113;-71
2021/05/19 08:16:47;;;;;;;11.02;5.10;;;;;;;;;;5002169;28;20559;-73
2021/05/19 08:19:13;;;;;;;14.10;7.88;;;;;;;;;;5019349;28;20389;-72
2021/05/19 08:21:39;;;;;;;19.88;7.63;;;;;;;;;;5018989;28;20022;-72
2021/05/19 08:24:05;;;;;;;11.43;6.25;;;;;;;;;;5009974;28;20042;-72
2021/05/19 08:26:31;;;;;;;8.73;4.60;;;;;;;;;;4991666;28;20380;-72
2021/05/19 08:28:57;;;;;;;10.50;4.18;;;;;;;;;;4992571;28;20026;-71
2021/05/19 08:31:23;;;;;;;6.10;3.47;;;;;;;;;;4982916;28;20034;-72
2021/05/19 08:33:49;;;;;;;6.00;3.53;;;;;;;;;;4991886;28;20041;-71
2021/05/19 08:36:15;;;;;;;13.18;4.40;;;;;;;;;;4991934;28;20045;-70
2021/05/19 08:38:42;;;;;;;12.45;3.95;;;;;;;;;;4986363;28;20034;-70
2021/05/19 08:41:08;;;;;;;6.55;2.55;;;;;;;;;;4984305;28;20076;-71
2021/05/19 08:43:34;;;;;;;11.27;3.47;;;;;;;;;;4977072;28;20070;-70
2021/05/19 08:46:04;;;;;;;8.18;3.25;;;;;;;;;;4979845;28;20049;-70
2021/05/19 08:48:31;;;;;;;9.80;2.95;;;;;;;;;;4991989;28;20474;-70
2021/05/19 08:50:57;;;;;;;9.98;2.15;;;;;;;;;;4992979;28;20023;-70
2021/05/19 08:53:25;;;;;;;4.30;1.98;;;;;;;;;;4985626;28;20495;-70
2021/05/19 08:55:51;;;;;;;11.73;2.80;;;;;;;;;;4994016;28;20041;-70
2021/05/19 08:58:17;;;;;;;9.38;2.10;;;;;;;;;;4992104;28;20017;-70
2021/05/19 09:00:43;;;;;;;3.10;1.10;;;;;;;;;;4998139;28;20105;-69
2021/05/19 09:03:09;;;;;;;2.10;0.82;;;;;;;;;;4990353;28;20066;-69
2021/05/19 09:05:36;;;;;;;1.77;0.50;;;;;;;;;;4991385;28;20026;-70
2021/05/19 09:08:09;;;;;;;2.10;0.57;;;;;;;;;;4991236;28;20034;-70
2021/05/19 09:10:37;;;;;;;3.70;0.60;;;;;;;;;;4990176;28;20038;-70
2021/05/19 09:13:03;;;;;;;2.58;1.10;;;;;;;;;;4997180;28;20034;-70
2021/05/19 09:15:45;;;;;;;2.30;1.30;;;;;;;;;;4988312;28;20439;-70
2021/05/19 09:18:11;;;;;;;6.43;1.10;;;;;;;;;;4987621;28;20034;-70
2021/05/19 09:20:44;;;;;;;6.88;1.42;;;;;;;;;;4986821;28;20046;-71
2021/05/19 09:23:16;;;;;;;2.55;1.05;;;;;;;;;;4986828;28;20050;-71
2021/05/19 09:25:42;;;;;;;2.47;1.00;;;;;;;;;;4985308;28;20050;-71
2021/05/19 09:28:09;;;;;;;2.42;0.82;;;;;;;;;;4988404;28;20026;-71
2021/05/19 09:30:45;;;;;;;1.30;0.50;;;;;;;;;;4991142;28;20494;-71
2021/05/19 09:33:17;;;;;;;2.55;0.55;;;;;;;;;;4989032;28;20019;-71
2021/05/19 09:35:44;;;;;;;4.10;0.70;;;;;;;;;;4980706;28;20022;-71
2021/05/19 09:38:26;;;;;;;2.20;1.20;;;;;;;;;;4999903;28;20040;-71
2021/05/19 09:41:16;;;;;;;7.57;0.95;;;;;;;;;;5011642;28;20034;-71
2021/05/19 09:43:42;;;;;;;5.97;1.95;;;;;;;;;;4993301;28;20042;-71
2021/05/19 09:46:42;;;;;;;4.47;1.35;;;;;;;;;;5003919;28;20041;-71
2021/05/19 09:49:12;;;;;;;11.65;2.33;;;;;;;;;;4992094;28;20403;-71
2021/05/19 09:51:39;;;;;;;3.55;1.40;;;;;;;;;;4996916;28;20022;-71
2021/05/19 09:54:05;;;;;;;4.03;1.10;;;;;;;;;;5015974;28;20030;-71
2021/05/19 09:56:31;;;;;;;4.22;1.25;;;;;;;;;;4993346;28;20596;-72
2021/05/19 09:58:57;;;;;;;4.40;1.33;;;;;;;;;;4989794;28;20101;-72
2021/05/19 10:01:24;;;;;;;3.55;1.33;;;;;;;;;;4995270;28;20037;-72
2021/05/19 10:03:52;;;;;;;4.55;1.73;;;;;;;;;;5004435;28;20476;-72
2021/05/19 10:06:28;;;;;;;3.42;1.38;;;;;;;;;;4992562;28;20168;-72
2021/05/19 10:08:54;;;;;;;2.40;1.00;;;;;;;;;;4993684;28;20030;-72
2021/05/19 10:11:21;;;;;;;1.08;0.40;;;;;;;;;;4989895;28;20034;-72
2021/05/19 10:13:47;;;;;;;0.98;0.30;;;;;;;;;;5003468;28;20467;-71
2021/05/19 10:16:15;;;;;;;1.67;0.60;;;;;;;;;;4991268;28;20109;-72
2021/05/19 10:18:44;;;;;;;1.00;0.32;;;;;;;;;;5000887;28;20034;-73
2021/05/19 10:21:11;;;;;;;1.53;0.20;;;;;;;;;;5021797;28;20040;-73
2021/05/19 10:23:39;;;;;;;1.75;0.57;;;;;;;;;;5022341;28;20026;-73
2021/05/19 10:26:07;;;;;;;2.63;0.22;;;;;;;;;;5012725;28;20596;-73
2021/05/19 10:28:39;;;;;;;0.65;0.22;;;;;;;;;;5005063;28;20022;-74
2021/05/19 10:31:22;;;;;;;1.00;0.40;;;;;;;;;;4999249;28;20030;-74
2021/05/19 10:33:49;;;;;;;1.55;0.10;;;;;;;;;;5004860;28;20165;-73
2021/05/19 10:36:24;;;;;;;1.60;0.20;;;;;;;;;;5001200;28;20532;-73
2021/05/19 10:39:10;;;;;;;1.95;0.50;;;;;;;;;;5001025;28;20030;-73
2021/05/19 10:41:40;;;;;;;1.88;0.30;;;;;;;;;;4988960;28;20034;-73
2021/05/19 10:44:10;;;;;;;3.85;0.57;;;;;;;;;;4992306;28;20018;-72
2021/05/19 10:46:55;;;;;;;1.65;0.57;;;;;;;;;;4984880;28;20034;-73
2021/05/19 10:49:21;;;;;;;2.88;0.50;;;;;;;;;;5014424;28;20129;-72
2021/05/19 10:58:02;;;;;;;1.17;0.43;;;;;;;;;;4992910;28;20041;-73
2021/05/19 11:00:28;;;;;;;2.60;0.70;;;;;;;;;;4993474;28;20400;-75
2021/05/19 11:05:23;;;;;;;2.75;0.65;;;;;;;;;;5003457;28;20042;-73
2021/05/19 11:08:08;;;;;;;4.78;1.80;;;;;;;;;;4990628;28;20050;-73
2021/05/19 11:10:35;;;;;;;5.10;0.70;;;;;;;;;;4982787;28;20496;-73
2021/05/19 11:13:00;;;;;;;3.78;0.65;;;;;;;;;;4989975;28;20029;-73
2021/05/19 11:18:15;;;;;;;6.03;0.77;;;;;;;;;;4984555;28;20465;-73
2021/05/19 11:20:40;;;;;;;;;;;;;;;;;;4992068;28;20432;-73
2021/05/19 11:23:10;;;;;;;0.70;0.30;;;;;;;;;;4993205;28;19913;-72
2021/05/19 11:25:36;;;;;;;0.65;0.20;;;;;;;;;;4999666;28;20027;-72
2021/05/19 11:28:02;;;;;;;1.58;0.60;;;;;;;;;;4990464;28;20033;-73
2021/05/19 11:30:29;;;;;;;1.17;0.32;;;;;;;;;;4981211;28;20019;-73
2021/05/19 11:33:08;;;;;;;2.70;0.82;;;;;;;;;;5002017;28;20022;-73
2021/05/19 11:35:34;;;;;;;3.33;0.70;;;;;;;;;;4992957;28;20030;-73
2021/05/19 11:38:02;;;;;;;1.38;0.43;;;;;;;;;;4998742;28;20018;-75
2021/05/19 11:40:49;;;;;;;0.63;0.32;;;;;;;;;;4995477;28;20042;-75
2021/05/19 11:43:15;;;;;;;1.08;0.20;;;;;;;;;;5005113;28;20026;-74
2021/05/19 11:45:42;;;;;;;2.30;0.65;;;;;;;;;;5000725;28;20026;-75
2021/05/19 11:48:21;;;;;;;2.70;0.50;;;;;;;;;;5008468;28;20041;-74
2021/05/19 11:50:47;;;;;;;3.77;0.40;;;;;;;;;;4996889;28;20022;-75
2021/05/19 11:53:13;;;;;;;1.65;0.45;;;;;;;;;;5008617;28;20022;-75
2021/05/19 11:55:41;;;;;;;2.03;0.47;;;;;;;;;;4995203;28;20018;-74
2021/05/19 11:58:08;;;;;;;1.90;0.50;;;;;;;;;;4991536;28;20515;-75
2021/05/19 12:00:38;;;;;;;1.25;0.60;;;;;;;;;;4978545;28;20030;-74
2021/05/19 12:03:05;;;;;;;2.90;0.50;;;;;;;;;;4987010;28;20045;-75
2021/05/19 12:05:41;;;;;;;1.95;0.40;;;;;;;;;;4992085;28;20073;-75
2021/05/19 12:08:07;;;;;;;2.45;0.60;;;;;;;;;;4996464;28;20472;-75
2021/05/19 12:10:33;;;;;;;3.42;0.80;;;;;;;;;;5010017;28;20018;-75
2021/05/19 12:13:03;;;;;;;1.83;0.70;;;;;;;;;;5002936;28;20033;-75
2021/05/19 12:15:30;;;;;;;2.40;0.43;;;;;;;;;;4997364;28;20027;-74
2021/05/19 12:18:00;;;;;;;5.03;1.00;;;;;;;;;;4995947;28;20105;-72
2021/05/19 12:20:27;;;;;;;2.78;0.80;;;;;;;;;;5004118;28;20034;-72
2021/05/19 12:22:59;;;;;;;5.38;1.63;;;;;;;;;;4996394;28;20026;-73
2021/05/19 12:25:25;;;;;;;6.68;1.10;;;;;;;;;;4984623;28;20019;-73
2021/05/19 12:28:03;;;;;;;6.78;0.65;;;;;;;;;;4989169;28;20476;-74
2021/05/19 12:30:29;;;;;;;6.55;0.85;;;;;;;;;;4986632;28;20023;-72
2021/05/19 12:33:05;;;;;;;6.03;1.73;;;;;;;;;;4992611;28;20504;-74
2021/05/19 12:35:31;;;;;;;3.78;1.25;;;;;;;;;;4992469;28;20021;-72
2021/05/19 12:38:02;;;;;;;6.00;1.20;;;;;;;;;;4984908;28;20093;-73
2021/05/19 12:40:30;;;;;;;4.47;1.30;;;;;;;;;;5007967;28;20054;-73
2021/05/19 12:42:59;;;;;;;7.88;1.35;;;;;;;;;;4979798;28;20393;-73
2021/05/19 12:45:30;;;;;;;3.33;1.50;;;;;;;;;;4987448;28;20035;-72
2021/05/19 12:47:59;;;;;;;3.00;0.70;;;;;;;;;;4984491;28;20053;-71
2021/05/19 12:50:25;;;;;;;3.75;1.50;;;;;;;;;;4980062;28;20508;-71
2021/05/19 12:52:52;;;;;;;6.18;1.35;;;;;;;;;;4980755;28;20026;-72
2021/05/19 12:55:22;;;;;;;3.65;1.23;;;;;;;;;;4983360;28;20015;-72
2021/05/19 12:57:48;;;;;;;2.88;1.23;;;;;;;;;;5005971;28;20062;-72
2021/05/19 13:00:15;;;;;;;3.33;0.90;;;;;;;;;;4978487;28;20057;-70
2021/05/19 13:02:41;;;;;;;2.67;0.90;;;;;;;;;;4984466;28;20022;-73
2021/05/19 13:05:09;;;;;;;4.20;1.45;;;;;;;;;;4990235;28;20481;-71
2021/05/19 13:07:43;;;;;;;4.72;1.10;;;;;;;;;;4986669;28;20030;-72
2021/05/19 13:10:25;;;;;;;2.90;0.90;;;;;;;;;;4979937;28;20054;-73
2021/05/19 13:12:57;;;;;;;2.38;1.10;;;;;;;;;;5007401;28;20030;-73
2021/05/19 13:15:28;;;;;;;2.28;1.30;;;;;;;;;;4986315;28;20378;-72
2021/05/19 13:18:02;;;;;;;5.13;1.40;;;;;;;;;;4994274;28;20022;-74
2021/05/19 13:20:29;;;;;;;6.75;1.10;;;;;;;;;;5003300;28;20030;-74
2021/05/19 13:23:02;;;;;;;2.25;0.82;;;;;;;;;;4993203;28;20446;-73
2021/05/19 13:25:29;;;;;;;2.47;0.68;;;;;;;;;;4997338;28;20026;-73
2021/05/19 13:27:55;;;;;;;3.60;0.98;;;;;;;;;;5001727;28;20021;-75
2021/05/19 13:30:24;;;;;;;2.05;0.68;;;;;;;;;;5001706;28;20038;-74
2021/05/19 13:38:22;;;;;;;4.80;1.73;;;;;;;;;;4988430;28;20507;-72
2021/05/19 13:40:49;;;;;;;3.47;2.03;;;;;;;;;;4993199;28;20034;-72
2021/05/19 13:43:15;;;;;;;8.02;3.78;;;;;;;;;;5012831;28;20040;-72
2021/05/19 13:45:41;;;;;;;4.55;2.67;;;;;;;;;;5010697;28;20034;-73
2021/05/19 13:48:07;;;;;;;6.97;2.83;;;;;;;;;;4990775;28;20022;-72
2021/05/19 13:50:34;;;;;;;3.85;2.10;;;;;;;;;;5015532;28;20029;-74
2021/05/19 13:53:00;;;;;;;3.35;2.20;;;;;;;;;;5017159;28;20029;-75
2021/05/19 13:55:26;;;;;;;5.30;2.75;;;;;;;;;;4992722;28;20019;-73
2021/05/19 13:57:52;;;;;;;5.40;2.17;;;;;;;;;;5001088;28;20024;-74
2021/05/19 14:00:19;;;;;;;5.35;2.20;;;;;;;;;;4995232;28;20050;-73
2021/05/19 14:02:48;;;;;;;7.90;2.65;;;;;;;;;;4994871;28;20060;-71
2021/05/19 14:05:15;;;;;;;4.35;2.40;;;;;;;;;;4993708;28;20018;-73
2021/05/19 14:07:41;;;;;;;3.75;2.50;;;;;;;;;;4991207;28;20031;-72
2021/05/19 14:10:08;;;;;;;5.03;3.30;;;;;;;;;;4989706;28;20608;-73
2021/05/19 14:12:47;;;;;;;6.60;4.18;;;;;;;;;;4989943;28;20022;-73
2021/05/19 14:15:42;;;;;;;8.20;3.80;;;;;;;;;;5006389;28;20119;-73
2021/05/19 14:18:13;;;;;;;6.75;3.67;;;;;;;;;;4995528;28;20038;-73
2021/05/19 14:28:35;;;;;;;5.80;2.58;;;;;;;;;;4992082;28;20073;-73
2021/05/19 14:31:01;;;;;;;6.28;3.40;;;;;;;;;;4983260;28;20416;-73
2021/05/19 14:33:27;;;;;;;6.40;4.30;;;;;;;;;;4993423;28;20029;-73
2021/05/19 15:00:43;;;;;;;8.05;5.15;;;;;;;;;;4992462;28;20041;-73
2021/05/19 15:03:09;;;;;;;7.00;4.78;;;;;;;;;;4996028;28;20109;-73
2021/05/19 15:05:38;;;;;;;6.60;4.50;;;;;;;;;;4994980;28;20113;-74
2021/05/19 15:08:04;;;;;;;5.00;2.50;;;;;;;;;;4995067;28;20034;-74
2021/05/19 15:10:30;;;;;;;5.03;2.85;;;;;;;;;;4996087;28;20036;-73
2021/05/19 15:12:56;;;;;;;6.25;4.00;;;;;;;;;;4994237;28;20450;-74
2021/05/19 15:15:22;;;;;;;7.50;4.93;;;;;;;;;;5000975;28;20084;-74
2021/05/19 15:17:48;;;;;;;7.65;4.93;;;;;;;;;;4996832;28;20026;-74
2021/05/19 15:20:14;;;;;;;5.95;3.53;;;;;;;;;;5001320;28;20033;-74
2021/05/19 15:22:40;;;;;;;7.75;3.80;;;;;;;;;;5013833;28;20033;-74
2021/05/19 15:25:06;;;;;;;5.05;4.18;;;;;;;;;;4996504;28;20105;-74